Time;durP1;ratioP1;P1;durP2;ratioP2;P2;SDS_P1;SDS_P2;PMS_P1;PMS_P2;Temp;Humidity;BMP_temperature;BMP_pressure;BME280_temperature;BME280_humidity;BME280_pressure;Samples;Min_cycle;Max_cycle;Signal;HPM_P1;HPM_P2
2024/01/17 00:00:02;;;;;;;2.00;1.90;;;;;;;-1.25;98.72;98873.84;5071136;28;20056;-71
2024/01/17 00:02:27;;;;;;;2.00;1.90;;;;;;;-1.24;98.86;98864.28;5062206;28;20063;-71
2024/01/17 00:04:54;;;;;;;1.92;1.83;;;;;;;-1.35;98.53;98856.50;5060601;28;20455;-71
2024/01/17 00:07:20;;;;;;;2.00;1.90;;;;;;;-1.33;98.54;98862.59;5074841;28;20035;-71
2024/01/17 00:09:46;;;;;;;2.05;1.95;;;;;;;-1.56;98.84;98814.88;5074556;28;20104;-72
2024/01/17 00:12:12;;;;;;;1.90;1.80;;;;;;;-1.27;98.92;98853.88;5050995;28;20382;-71
2024/01/17 00:14:37;;;;;;;2.10;2.00;;;;;;;-1.26;98.80;98846.06;5032363;28;20086;-71
2024/01/17 00:17:03;;;;;;;2.00;1.90;;;;;;;-1.17;98.73;98856.41;5043777;28;20028;-71
2024/01/17 00:19:30;;;;;;;2.00;1.90;;;;;;;-1.14;98.97;98845.13;5070173;28;20493;-72
2024/01/17 00:21:56;;;;;;;2.00;1.90;;;;;;;-1.12;98.90;98844.22;5048413;28;20429;-72
2024/01/17 00:24:21;;;;;;;2.10;2.00;;;;;;;-1.14;99.57;98839.91;5068769;28;20086;-71
2024/01/17 00:26:47;;;;;;;1.95;1.85;;;;;;;-1.10;99.20;98831.19;5062880;28;20031;-71
2024/01/17 00:29:12;;;;;;;2.00;1.90;;;;;;;-1.09;99.55;98825.97;5031495;28;20059;-71
2024/01/17 00:31:38;;;;;;;2.20;2.10;;;;;;;-1.09;99.43;98822.50;5049344;28;20106;-71
2024/01/17 00:34:03;;;;;;;2.20;2.10;;;;;;;-1.07;99.31;98820.75;5051466;28;20039;-72
2024/01/17 00:36:29;;;;;;;2.03;1.92;;;;;;;-1.35;99.28;98767.84;5049906;28;20059;-71
2024/01/17 00:38:54;;;;;;;2.00;1.90;;;;;;;-1.00;99.78;98818.06;5034455;28;20033;-71
2024/01/17 00:41:19;;;;;;;2.03;1.92;;;;;;;-1.02;99.78;98798.94;5031890;28;20095;-71
2024/01/17 00:43:45;;;;;;;2.00;1.90;;;;;;;-0.95;99.72;98816.31;5049979;28;20682;-71
2024/01/17 00:46:11;;;;;;;2.03;1.92;;;;;;;-0.92;99.76;98805.84;5048503;28;20025;-71
2024/01/17 00:48:36;;;;;;;1.75;1.75;;;;;;;-0.89;100.00;98807.59;5053190;28;20040;-71
2024/01/17 00:51:02;;;;;;;2.00;1.90;;;;;;;-0.84;99.80;98804.03;5047980;28;20554;-71
2024/01/17 00:53:27;;;;;;;1.98;1.88;;;;;;;-1.05;99.73;98761.56;5058128;28;20094;-71
2024/01/17 00:55:53;;;;;;;1.88;1.80;;;;;;;-0.81;99.74;98798.81;5068841;28;20028;-71
2024/01/17 00:58:18;;;;;;;1.92;1.83;;;;;;;-0.76;99.92;98799.66;5060630;28;20028;-72
2024/01/17 01:00:43;;;;;;;1.83;1.77;;;;;;;-0.68;99.56;98800.47;5050038;28;20072;-71
2024/01/17 01:03:09;;;;;;;1.95;1.85;;;;;;;-0.65;99.63;98799.56;5049522;28;20021;-71
2024/01/17 01:05:34;;;;;;;1.90;1.80;;;;;;;-0.64;99.07;98791.72;5057262;28;20029;-72
2024/01/17 01:08:00;;;;;;;1.88;1.80;;;;;;;-0.86;98.92;98756.25;5049490;28;20466;-72
2024/01/17 01:10:25;;;;;;;1.90;1.80;;;;;;;-0.65;98.86;98774.34;5050639;28;20032;-71
2024/01/17 01:12:50;;;;;;;1.70;1.70;;;;;;;-0.57;98.85;98782.97;5051365;28;20021;-71
2024/01/17 01:15:16;;;;;;;2.10;2.00;;;;;;;-0.50;99.10;98774.22;5065860;28;20017;-71
2024/01/17 01:17:41;;;;;;;2.00;1.90;;;;;;;-0.47;98.51;98766.34;5058275;28;20044;-72
2024/01/17 01:20:07;;;;;;;1.88;1.80;;;;;;;-0.47;98.61;98763.72;5057540;28;20103;-72
2024/01/17 01:22:33;;;;;;;1.90;1.80;;;;;;;-0.46;97.85;98755.00;5066633;28;20029;-72
2024/01/17 01:24:58;;;;;;;1.70;1.70;;;;;;;-0.44;98.04;98758.47;5055905;28;20496;-72
2024/01/17 01:27:24;;;;;;;1.90;1.80;;;;;;;-0.66;97.98;98714.31;5056290;28;20029;-71
2024/01/17 01:29:49;;;;;;;1.90;1.80;;;;;;;-0.39;97.57;98758.41;5068274;28;20020;-71
2024/01/17 01:32:14;;;;;;;1.73;1.73;;;;;;;-0.32;97.59;98757.50;5068267;28;20478;-71
2024/01/17 01:34:40;;;;;;;1.70;1.70;;;;;;;-0.56;97.18;98703.75;5050337;28;20028;-72
2024/01/17 01:37:05;;;;;;;1.90;1.80;;;;;;;-0.27;97.26;98751.34;5048570;28;20018;-72
2024/01/17 01:39:31;;;;;;;1.80;1.75;;;;;;;-0.25;96.79;98746.94;5056071;28;20019;-72
2024/01/17 01:41:56;;;;;;;1.75;1.75;;;;;;;-0.20;97.39;98747.78;5067359;28;20020;-71
2024/01/17 01:44:22;;;;;;;1.70;1.70;;;;;;;-0.16;96.54;98751.22;5034208;28;20044;-71
2024/01/17 01:46:48;;;;;;;1.60;1.60;;;;;;;-0.28;96.17;98718.25;5046036;28;20395;-72
2024/01/17 01:49:14;;;;;;;1.92;1.83;;;;;;;-0.01;95.58;98749.31;5026793;28;20120;-72
2024/01/17 01:51:44;;;;;;;1.60;1.60;;;;;;;-0.32;95.53;98707.88;5047471;28;20025;-72
2024/01/17 01:54:12;;;;;;;1.60;1.60;;;;;;;-0.04;95.51;98733.69;5048371;28;20025;-72
2024/01/17 01:56:38;;;;;;;1.70;1.70;;;;;;;-0.26;95.56;98695.59;5038314;28;20057;-72
2024/01/17 01:59:04;;;;;;;1.60;1.60;;;;;;;-0.08;95.36;98731.97;5029217;28;20025;-72
2024/01/17 02:06:34;;;;;;;1.70;1.70;;;;;;;0.08;95.69;98721.34;5006517;28;20058;-71
2024/01/17 02:09:00;;;;;;;1.70;1.70;;;;;;;0.00;95.62;98701.38;5006803;28;20026;-71
2024/01/17 02:11:29;;;;;;;1.50;1.50;;;;;;;0.13;96.35;98711.72;5007484;28;20026;-71
2024/01/17 02:13:55;;;;;;;1.60;1.60;;;;;;;0.14;97.10;98714.28;5006938;28;20034;-71
2024/01/17 02:16:20;;;;;;;1.48;1.48;;;;;;;0.19;97.42;98711.63;4999259;28;20553;-71
2024/01/17 02:18:47;;;;;;;1.60;1.60;;;;;;;0.16;96.59;98699.47;5005335;28;20026;-72
2024/01/17 02:21:13;;;;;;;1.52;1.52;;;;;;;0.21;96.61;98702.88;5007130;28;20025;-72
2024/01/17 02:23:38;;;;;;;1.60;1.60;;;;;;;0.21;97.33;98710.72;5007351;28;20528;-71
2024/01/17 02:26:04;;;;;;;1.60;1.60;;;;;;;-0.06;96.88;98667.50;5008286;28;20460;-72
2024/01/17 02:28:31;;;;;;;1.40;1.40;;;;;;;0.17;97.01;98689.84;5006555;28;20045;-71
2024/01/17 02:30:57;;;;;;;1.70;1.70;;;;;;;0.15;97.28;98691.66;4988727;28;20018;-71
2024/01/17 02:33:23;;;;;;;1.67;1.67;;;;;;;0.17;97.92;98684.63;5005933;28;20277;-71
2024/01/17 02:35:48;;;;;;;1.60;1.60;;;;;;;0.14;97.79;98690.78;5005940;28;20030;-71
2024/01/17 02:38:14;;;;;;;1.60;1.60;;;;;;;0.15;98.58;98681.19;5005674;28;20048;-71
2024/01/17 02:40:39;;;;;;;1.70;1.70;;;;;;;0.12;97.52;98681.19;5004804;28;20541;-71
2024/01/17 02:43:05;;;;;;;1.65;1.65;;;;;;;0.08;98.11;98658.63;5005722;28;20491;-72
2024/01/17 02:45:31;;;;;;;1.70;1.70;;;;;;;0.16;98.24;98667.22;5005840;28;20026;-71
2024/01/17 02:47:56;;;;;;;1.70;1.70;;;;;;;0.20;97.80;98663.69;5006917;28;20680;-74
2024/01/17 02:50:22;;;;;;;1.60;1.60;;;;;;;0.13;98.00;98659.44;5008181;28;20056;-71
2024/01/17 02:52:48;;;;;;;1.65;1.65;;;;;;;0.08;97.93;98638.59;5008081;28;20057;-72
2024/01/17 02:55:16;;;;;;;1.60;1.60;;;;;;;0.11;98.38;98640.28;5006932;28;20080;-71
2024/01/17 02:57:42;;;;;;;1.60;1.60;;;;;;;0.07;98.29;98633.38;5007212;28;20641;-71
2024/01/17 03:00:09;;;;;;;1.70;1.70;;;;;;;0.10;98.53;98636.78;5008570;28;20044;-71
2024/01/17 03:02:34;;;;;;;1.60;1.60;;;;;;;-0.19;98.72;98590.16;5007220;28;20025;-71
2024/01/17 03:05:00;;;;;;;1.70;1.70;;;;;;;0.05;99.51;98622.91;5007782;28;20469;-72
2024/01/17 03:07:25;;;;;;;1.58;1.58;;;;;;;0.00;99.10;98614.31;5007045;28;20076;-72
2024/01/17 03:09:51;;;;;;;1.70;1.70;;;;;;;-0.25;99.32;98571.94;4989773;28;20538;-71
2024/01/17 03:12:16;;;;;;;1.70;1.70;;;;;;;0.03;98.88;98591.56;5007756;28;20038;-72
2024/01/17 03:14:41;;;;;;;1.52;1.52;;;;;;;-0.03;98.77;98583.84;5010607;28;20105;-72
2024/01/17 03:17:08;;;;;;;1.70;1.70;;;;;;;0.06;99.81;98587.19;5012068;28;20088;-72
2024/01/17 03:19:33;;;;;;;1.70;1.70;;;;;;;0.03;99.30;98584.63;5010981;28;20034;-71
2024/01/17 03:22:01;;;;;;;1.90;1.80;;;;;;;-0.18;99.70;98552.69;5011558;28;20045;-71
2024/01/17 03:24:26;;;;;;;1.55;1.55;;;;;;;-0.14;99.17;98557.00;5011986;28;20215;-72
2024/01/17 03:26:52;;;;;;;1.60;1.60;;;;;;;0.08;99.19;98591.53;5009442;28;20022;-73
2024/01/17 03:29:17;;;;;;;1.60;1.60;;;;;;;0.07;100.00;98589.78;4994156;28;20030;-71
2024/01/17 03:31:43;;;;;;;1.88;1.80;;;;;;;0.09;99.56;98571.47;5010136;28;20030;-72
2024/01/17 03:34:08;;;;;;;1.75;1.75;;;;;;;0.11;99.18;98569.72;5009971;28;20026;-72
2024/01/17 03:36:34;;;;;;;1.70;1.70;;;;;;;0.12;99.60;98553.13;4985843;28;20030;-72
2024/01/17 03:38:59;;;;;;;1.60;1.60;;;;;;;0.13;99.98;98540.06;5010066;28;20021;-72
2024/01/17 03:41:25;;;;;;;1.70;1.70;;;;;;;0.18;99.65;98546.09;5008755;28;20608;-70
2024/01/17 03:43:50;;;;;;;1.55;1.55;;;;;;;0.13;99.30;98526.13;4992225;28;20747;-71
2024/01/17 03:46:16;;;;;;;1.90;1.80;;;;;;;0.25;99.78;98532.00;4993297;28;20045;-71
2024/01/17 03:48:41;;;;;;;1.90;1.80;;;;;;;0.28;100.00;98525.88;4992777;28;20407;-72
2024/01/17 03:51:07;;;;;;;1.60;1.60;;;;;;;0.30;100.00;98517.13;5010904;28;20806;-71
2024/01/17 03:53:32;;;;;;;1.67;1.67;;;;;;;0.36;100.00;98516.16;5011455;28;20113;-71
2024/01/17 03:55:58;;;;;;;1.67;1.67;;;;;;;0.37;100.00;98510.03;5010265;28;20021;-72
2024/01/17 03:58:23;;;;;;;1.83;1.80;;;;;;;0.36;100.00;98508.31;5010438;28;20414;-71
2024/01/17 04:00:49;;;;;;;1.60;1.60;;;;;;;0.25;100.00;98484.13;5011828;28;20048;-71
2024/01/17 04:03:14;;;;;;;1.50;1.50;;;;;;;0.44;100.00;98495.97;5011621;28;20022;-71
2024/01/17 04:05:41;;;;;;;1.50;1.50;;;;;;;0.42;100.00;98490.78;5010479;28;20141;-72
2024/01/17 04:08:07;;;;;;;1.60;1.60;;;;;;;0.21;100.00;98445.81;5009981;28;20029;-71
2024/01/17 04:10:33;;;;;;;1.50;1.50;;;;;;;0.14;100.00;98418.06;5011429;28;20021;-72
2024/01/17 04:13:00;;;;;;;1.60;1.60;;;;;;;0.56;100.00;98467.00;5008488;28;20563;-72
2024/01/17 04:15:25;;;;;;;1.52;1.52;;;;;;;0.56;100.00;98464.38;4993229;28;20071;-72
2024/01/17 04:17:51;;;;;;;1.58;1.58;;;;;;;0.53;100.00;98464.44;5010662;28;20022;-71
2024/01/17 04:20:16;;;;;;;1.60;1.60;;;;;;;0.55;100.00;98449.56;5010006;28;20041;-71
2024/01/17 04:22:41;;;;;;;1.50;1.50;;;;;;;0.56;100.00;98433.00;5010260;28;20026;-72
2024/01/17 04:25:07;;;;;;;1.60;1.60;;;;;;;0.34;100.00;98384.59;5009552;28;20026;-72
2024/01/17 04:27:33;;;;;;;1.58;1.58;;;;;;;0.64;100.00;98400.59;5007636;28;20124;-73
2024/01/17 04:29:59;;;;;;;1.50;1.50;;;;;;;0.26;99.90;98371.66;5008623;28;20033;-74
2024/01/17 04:32:26;;;;;;;1.60;1.60;;;;;;;0.53;100.00;98396.44;5008976;28;20644;-74
2024/01/17 04:34:51;;;;;;;1.60;1.60;;;;;;;0.57;100.00;98392.88;5008993;28;20029;-76
2024/01/17 04:37:17;;;;;;;1.58;1.58;;;;;;;0.53;99.99;98386.00;4990352;28;20029;-74
2024/01/17 04:39:43;;;;;;;1.70;1.70;;;;;;;0.49;100.00;98377.34;5009200;28;20608;-73
2024/01/17 04:42:08;;;;;;;1.60;1.60;;;;;;;0.57;100.00;98366.72;5009992;28;20078;-73
2024/01/17 04:44:34;;;;;;;1.60;1.60;;;;;;;0.36;100.00;98335.75;4992733;28;20057;-73
2024/01/17 04:47:00;;;;;;;1.48;1.48;;;;;;;0.17;100.00;98308.22;4992395;28;20026;-74
2024/01/17 04:49:27;;;;;;;1.60;1.60;;;;;;;0.59;100.00;98360.56;5008096;28;20041;-74
2024/01/17 04:51:53;;;;;;;1.60;1.60;;;;;;;0.61;100.00;98371.00;5010667;28;20475;-74
2024/01/17 04:54:20;;;;;;;1.40;1.40;;;;;;;0.59;100.00;98364.94;5010047;28;20045;-74
2024/01/17 04:56:45;;;;;;;1.52;1.52;;;;;;;0.60;100.00;98364.03;5009815;28;20021;-76
2024/01/17 04:59:11;;;;;;;1.60;1.60;;;;;;;0.67;100.00;98371.75;4984676;28;20026;-72
2024/01/17 05:01:36;;;;;;;1.70;1.70;;;;;;;0.64;100.00;98355.25;4990811;28;20547;-73
2024/01/17 05:04:02;;;;;;;1.50;1.50;;;;;;;0.64;100.00;98352.63;4997212;28;20088;-73
2024/01/17 05:06:28;;;;;;;1.60;1.60;;;;;;;0.65;100.00;98351.72;5009574;28;20056;-73
2024/01/17 05:08:56;;;;;;;1.60;1.60;;;;;;;0.47;100.00;98323.31;4991592;28;20025;-71
2024/01/17 05:11:25;;;;;;;1.50;1.50;;;;;;;0.43;100.00;98287.69;5010329;28;20029;-75
2024/01/17 05:13:50;;;;;;;1.60;1.60;;;;;;;0.70;100.00;98311.50;4992223;28;20093;-74
2024/01/17 05:16:17;;;;;;;1.60;1.60;;;;;;;0.78;100.00;98320.06;5009323;28;20543;-74
2024/01/17 05:18:43;;;;;;;1.58;1.58;;;;;;;0.51;100.00;98273.53;5008828;28;20041;-75
2024/01/17 05:21:08;;;;;;;1.60;1.60;;;;;;;0.71;100.00;98296.69;5008232;28;20479;-74
2024/01/17 05:23:34;;;;;;;1.50;1.50;;;;;;;0.81;100.00;98308.66;5007204;28;20100;-74
2024/01/17 05:25:59;;;;;;;1.50;1.50;;;;;;;0.86;100.00;98302.44;4990482;28;20030;-74
2024/01/17 05:28:25;;;;;;;1.60;1.60;;;;;;;0.86;100.00;98298.94;5008210;28;20014;-74
2024/01/17 05:30:50;;;;;;;1.70;1.70;;;;;;;0.63;100.00;98251.47;5006529;28;20030;-75
2024/01/17 05:33:16;;;;;;;1.60;1.60;;;;;;;0.59;100.00;98242.00;5007937;28;20071;-75
2024/01/17 05:35:41;;;;;;;1.60;1.60;;;;;;;0.57;100.00;98238.53;5007038;28;20018;-75
2024/01/17 05:38:07;;;;;;;1.40;1.40;;;;;;;0.84;100.00;98271.97;5001351;28;20034;-73
2024/01/17 05:40:32;;;;;;;1.50;1.50;;;;;;;0.61;100.00;98227.97;4990201;28;20027;-73
2024/01/17 05:42:58;;;;;;;1.50;1.50;;;;;;;0.87;100.00;98262.28;5004272;28;20029;-72
2024/01/17 05:45:23;;;;;;;1.63;1.63;;;;;;;0.87;100.00;98254.41;5009360;28;20134;-73
2024/01/17 05:47:49;;;;;;;1.50;1.50;;;;;;;0.67;100.00;98216.53;5008061;28;20142;-73
2024/01/17 05:50:14;;;;;;;1.50;1.50;;;;;;;0.93;100.00;98241.22;4991315;28;20026;-73
2024/01/17 05:52:42;;;;;;;1.60;1.60;;;;;;;0.91;100.00;98231.66;5009301;28;20030;-74
2024/01/17 05:55:09;;;;;;;1.50;1.50;;;;;;;0.90;100.00;98224.72;5008886;28;20030;-74
2024/01/17 05:57:36;;;;;;;1.60;1.60;;;;;;;0.85;100.00;98213.50;5008557;28;20108;-74
2024/01/17 06:00:03;;;;;;;1.50;1.50;;;;;;;0.90;100.00;98215.13;5009566;28;20038;-74
2024/01/17 06:02:28;;;;;;;1.60;1.60;;;;;;;0.94;100.00;98218.53;4990843;28;20076;-74
2024/01/17 06:04:54;;;;;;;1.42;1.42;;;;;;;0.94;100.00;98216.75;5008699;28;20064;-73
2024/01/17 06:07:20;;;;;;;1.90;1.80;;;;;;;0.95;100.00;98202.78;5008308;28;20033;-74
2024/01/17 06:09:45;;;;;;;1.60;1.60;;;;;;;0.95;100.00;98202.78;5007168;28;20129;-73
2024/01/17 06:12:11;;;;;;;1.50;1.50;;;;;;;0.95;100.00;98192.31;5007535;28;20048;-74
2024/01/17 06:14:37;;;;;;;1.50;1.50;;;;;;;0.69;100.00;98146.72;5006855;28;20029;-73
2024/01/17 06:17:02;;;;;;;1.55;1.55;;;;;;;0.95;100.00;98186.22;5005583;28;20026;-74
2024/01/17 06:19:28;;;;;;;1.50;1.50;;;;;;;0.93;100.00;98167.06;4987696;28;20033;-73
2024/01/17 06:21:53;;;;;;;1.50;1.50;;;;;;;0.81;100.00;98131.59;5005936;28;20029;-73
2024/01/17 06:24:19;;;;;;;1.60;1.60;;;;;;;1.03;100.00;98147.63;5005867;28;20033;-73
2024/01/17 06:26:44;;;;;;;1.30;1.30;;;;;;;1.06;100.00;98148.41;5004136;28;20041;-74
2024/01/17 06:29:10;;;;;;;1.45;1.45;;;;;;;1.00;100.00;98142.47;5006405;28;20228;-75
2024/01/17 06:31:36;;;;;;;1.50;1.50;;;;;;;0.62;100.00;98069.28;4987125;28;20690;-73
2024/01/17 06:34:01;;;;;;;1.52;1.52;;;;;;;1.06;100.00;98137.06;5008339;28;20499;-74
2024/01/17 06:36:26;;;;;;;1.50;1.50;;;;;;;0.80;100.00;98087.16;5008219;28;20372;-73
2024/01/17 06:38:52;;;;;;;1.50;1.50;;;;;;;0.79;100.00;98080.22;5008968;28;20531;-74
2024/01/17 06:41:18;;;;;;;1.60;1.60;;;;;;;1.11;100.00;98119.50;5007779;28;20049;-74
2024/01/17 06:43:45;;;;;;;1.45;1.45;;;;;;;1.12;100.00;98108.16;4990807;28;20069;-74
2024/01/17 06:46:10;;;;;;;1.50;1.50;;;;;;;1.15;100.00;98100.22;4987410;28;20184;-74
2024/01/17 06:48:36;;;;;;;1.50;1.50;;;;;;;0.91;100.00;98064.19;5007891;28;20531;-74
2024/01/17 06:51:02;;;;;;;1.60;1.60;;;;;;;0.86;100.00;98048.59;5008345;28;20053;-74
2024/01/17 06:53:28;;;;;;;1.60;1.60;;;;;;;0.70;100.00;98028.97;4989921;28;20171;-74
2024/01/17 06:55:53;;;;;;;1.45;1.45;;;;;;;0.92;100.00;98050.22;5008646;28;20033;-74
2024/01/17 06:58:19;;;;;;;1.60;1.60;;;;;;;1.14;100.00;98080.16;5008532;28;20038;-74
2024/01/17 07:00:45;;;;;;;1.50;1.50;;;;;;;1.19;100.00;98070.41;5006956;28;20507;-73
2024/01/17 07:03:11;;;;;;;1.60;1.60;;;;;;;1.01;100.00;98042.09;5008693;28;20030;-74
2024/01/17 07:05:36;;;;;;;1.70;1.70;;;;;;;0.98;100.00;98021.25;5007621;28;20454;-75
2024/01/17 07:08:02;;;;;;;1.60;1.60;;;;;;;1.18;100.00;98061.72;5006023;28;20034;-75
2024/01/17 07:10:27;;;;;;;1.50;1.50;;;;;;;1.18;100.00;98055.63;4987439;28;20038;-73
2024/01/17 07:12:53;;;;;;;1.60;1.60;;;;;;;0.93;100.00;98010.06;4988087;28;20036;-71
2024/01/17 07:15:18;;;;;;;1.50;1.50;;;;;;;1.26;100.00;98049.28;5003516;28;20033;-75
2024/01/17 07:17:44;;;;;;;1.50;1.50;;;;;;;1.11;100.00;98012.16;5005071;28;20056;-75
2024/01/17 07:20:11;;;;;;;1.60;1.60;;;;;;;1.28;100.00;98054.47;5004077;28;20022;-75
2024/01/17 07:22:44;;;;;;;1.40;1.40;;;;;;;1.31;100.00;98051.75;5006242;28;20483;-74
2024/01/17 07:25:10;;;;;;;1.40;1.40;;;;;;;1.11;100.00;98010.41;5017397;28;20033;-75
2024/01/17 07:27:36;;;;;;;1.50;1.50;;;;;;;1.37;100.00;98038.50;4989284;28;20029;-75
2024/01/17 07:30:01;;;;;;;1.48;1.48;;;;;;;1.49;100.00;98038.16;5008290;28;20038;-76
2024/01/17 07:32:27;;;;;;;1.40;1.40;;;;;;;1.38;100.00;98035.81;5006877;28;20092;-74
2024/01/17 07:34:53;;;;;;;1.60;1.60;;;;;;;1.43;100.00;98040.97;5008286;28;20080;-72
2024/01/17 07:37:18;;;;;;;1.50;1.50;;;;;;;1.45;100.00;98041.75;4999415;28;20026;-75
2024/01/17 07:39:43;;;;;;;1.50;1.50;;;;;;;1.20;100.00;98004.09;4994391;28;20088;-75
2024/01/17 07:42:09;;;;;;;1.40;1.40;;;;;;;1.47;100.00;98034.72;5007096;28;20540;-75
2024/01/17 07:44:34;;;;;;;1.50;1.50;;;;;;;1.27;100.00;97997.75;4987348;28;20049;-76
2024/01/17 07:47:00;;;;;;;1.60;1.60;;;;;;;1.53;100.00;98036.31;4989550;28;20103;-76
2024/01/17 07:49:25;;;;;;;1.48;1.48;;;;;;;1.58;100.00;98027.44;5007506;28;20471;-76
2024/01/17 07:51:51;;;;;;;1.50;1.50;;;;;;;1.65;100.00;98022.88;5007334;28;20502;-77
2024/01/17 07:54:17;;;;;;;1.42;1.42;;;;;;;1.64;100.00;98008.91;5007708;28;20029;-78
2024/01/17 07:56:43;;;;;;;1.60;1.60;;;;;;;1.42;100.00;97963.28;4988958;28;20036;-76
2024/01/17 07:59:08;;;;;;;1.40;1.40;;;;;;;1.73;100.00;97990.28;4988420;28;20037;-78
2024/01/17 08:01:34;;;;;;;1.40;1.40;;;;;;;1.67;100.00;97974.75;5010219;28;20071;-79
2024/01/17 08:04:00;;;;;;;1.40;1.40;;;;;;;1.65;100.00;97960.84;4991261;28;20522;-78
2024/01/17 08:06:25;;;;;;;1.40;1.40;;;;;;;1.74;100.00;97959.69;4991275;28;20042;-79
2024/01/17 08:08:52;;;;;;;1.42;1.42;;;;;;;1.54;100.00;97923.63;5010675;28;20032;-79
2024/01/17 08:11:18;;;;;;;1.50;1.50;;;;;;;1.79;100.00;97960.41;5009488;28;20134;-80
2024/01/17 08:13:44;;;;;;;1.50;1.50;;;;;;;1.76;100.00;97927.31;5004823;28;20038;-79
2024/01/17 08:16:10;;;;;;;1.30;1.30;;;;;;;1.60;100.00;97904.25;5008794;28;20475;-80
2024/01/17 08:18:36;;;;;;;1.40;1.40;;;;;;;1.79;100.00;97958.66;5007545;28;20049;-77
2024/01/17 08:21:01;;;;;;;1.50;1.50;;;;;;;1.53;100.00;97916.69;4989221;28;20472;-79
2024/01/17 08:23:27;;;;;;;1.40;1.40;;;;;;;1.77;100.00;97950.00;4988774;28;20038;-79
2024/01/17 08:25:52;;;;;;;1.40;1.40;;;;;;;1.55;100.00;97912.22;5004853;28;20426;-75
2024/01/17 08:28:17;;;;;;;1.30;1.30;;;;;;;1.70;100.00;97922.25;5011094;28;20030;-80
2024/01/17 08:30:43;;;;;;;1.40;1.40;;;;;;;1.70;100.00;97916.16;5009683;28;20554;-81
2024/01/17 08:33:09;;;;;;;1.40;1.40;;;;;;;1.73;100.00;97914.28;5011372;28;20025;-80
2024/01/17 08:35:34;;;;;;;1.40;1.40;;;;;;;1.78;100.00;97917.63;5010551;28;20666;-80
2024/01/17 08:38:00;;;;;;;1.40;1.40;;;;;;;1.83;100.00;97912.25;4992366;28;20033;-79
2024/01/17 08:40:25;;;;;;;1.40;1.40;;;;;;;1.87;100.00;97909.47;4993322;28;20038;-79
2024/01/17 08:42:51;;;;;;;1.33;1.33;;;;;;;1.70;100.00;97859.38;5009439;28;20030;-78
2024/01/17 08:45:18;;;;;;;1.20;1.20;;;;;;;1.97;100.00;97900.44;4979793;28;20391;-78
2024/01/17 08:47:44;;;;;;;1.48;1.48;;;;;;;1.97;100.00;97891.69;4993431;28;20033;-78
2024/01/17 08:50:13;;;;;;;1.30;1.30;;;;;;;1.96;100.00;97884.75;5010075;28;20506;-77
2024/01/17 08:52:38;;;;;;;1.40;1.40;;;;;;;1.97;100.00;97879.44;5011269;28;20092;-78
2024/01/17 08:55:08;;;;;;;1.40;1.40;;;;;;;2.03;100.00;97886.25;5009445;28;20033;-78
2024/01/17 08:57:37;;;;;;;1.30;1.30;;;;;;;1.65;100.00;97808.88;4992442;28;20025;-77
2024/01/17 09:00:05;;;;;;;1.50;1.50;;;;;;;2.04;100.00;97880.09;5010244;28;20021;-78
2024/01/17 09:02:31;;;;;;;1.40;1.40;;;;;;;2.10;100.00;97862.41;5009986;28;20072;-78
2024/01/17 09:04:57;;;;;;;1.40;1.40;;;;;;;1.96;100.00;97825.28;5008764;28;20073;-77
2024/01/17 09:07:23;;;;;;;1.40;1.40;;;;;;;2.11;100.00;97851.00;4990223;28;20658;-79
2024/01/17 09:09:48;;;;;;;1.33;1.33;;;;;;;2.04;100.00;97832.91;5009694;28;20105;-79
2024/01/17 09:12:17;;;;;;;1.40;1.40;;;;;;;1.94;100.00;97826.28;4991018;28;20113;-79
2024/01/17 09:14:43;;;;;;;1.20;1.20;;;;;;;2.18;100.00;97860.38;4991008;28;20066;-77
2024/01/17 09:17:09;;;;;;;1.30;1.30;;;;;;;2.14;100.00;97844.81;5007744;28;20041;-79
2024/01/17 09:19:34;;;;;;;1.40;1.40;;;;;;;2.21;100.00;97834.06;5010000;28;20339;-75
2024/01/17 09:22:00;;;;;;;1.40;1.40;;;;;;;2.20;100.00;97823.63;4989809;28;20080;-74
2024/01/17 09:24:25;;;;;;;1.30;1.30;;;;;;;2.00;100.00;97792.84;5007760;28;20103;-74
2024/01/17 09:26:51;;;;;;;1.25;1.25;;;;;;;2.00;100.00;97789.34;4991267;28;20446;-74
2024/01/17 09:29:17;;;;;;;1.40;1.40;;;;;;;2.16;100.00;97801.03;4991483;28;20758;-76
2024/01/17 09:31:43;;;;;;;1.40;1.40;;;;;;;1.95;100.00;97762.44;5008163;28;20038;-76
2024/01/17 09:34:08;;;;;;;1.38;1.38;;;;;;;2.09;100.00;97779.41;4973887;28;20026;-75
2024/01/17 09:36:34;;;;;;;1.35;1.35;;;;;;;2.28;100.00;97803.22;5000885;28;20036;-74
2024/01/17 09:39:00;;;;;;;1.40;1.40;;;;;;;2.29;100.00;97811.03;4991725;28;20120;-72
2024/01/17 09:41:25;;;;;;;1.15;1.15;;;;;;;1.96;100.00;97753.69;5009007;28;20760;-73
2024/01/17 09:43:51;;;;;;;1.30;1.30;;;;;;;2.22;100.00;97801.69;5009688;28;20049;-72
2024/01/17 09:46:17;;;;;;;1.50;1.50;;;;;;;2.22;100.00;97791.19;4990416;28;20029;-73
2024/01/17 09:48:43;;;;;;;1.40;1.40;;;;;;;2.17;100.00;97789.63;5009778;28;20326;-74
2024/01/17 09:51:14;;;;;;;1.58;1.58;;;;;;;2.24;100.00;97789.34;5008041;28;20474;-73
2024/01/17 09:53:48;;;;;;;1.50;1.50;;;;;;;1.96;100.00;97749.28;5009182;28;20086;-73
2024/01/17 09:56:16;;;;;;;1.45;1.45;;;;;;;2.04;100.00;97747.25;5007735;28;20034;-73
2024/01/17 09:58:45;;;;;;;1.20;1.20;;;;;;;2.05;100.00;97741.09;5005316;28;20018;-72
2024/01/17 10:01:11;;;;;;;1.60;1.60;;;;;;;2.18;100.00;97763.38;5007416;28;20076;-71
2024/01/17 10:03:39;;;;;;;1.40;1.40;;;;;;;2.28;100.00;97766.50;5007977;28;20033;-72
2024/01/17 10:06:07;;;;;;;1.17;1.17;;;;;;;2.20;100.00;97751.06;5003042;28;20046;-72
2024/01/17 10:08:33;;;;;;;1.40;1.40;;;;;;;2.04;100.00;97713.16;4988332;28;20109;-72
2024/01/17 10:10:58;;;;;;;1.40;1.40;;;;;;;2.27;100.00;97738.59;4988017;28;20757;-72
2024/01/17 10:13:24;;;;;;;1.30;1.30;;;;;;;2.20;100.00;97723.97;4988584;28;20104;-71
2024/01/17 10:15:49;;;;;;;1.52;1.52;;;;;;;2.32;100.00;97737.47;5008687;28;20554;-71
2024/01/17 10:18:15;;;;;;;1.30;1.30;;;;;;;2.40;100.00;97732.84;5008361;28;20021;-71
2024/01/17 10:20:42;;;;;;;1.40;1.40;;;;;;;2.42;100.00;97735.41;5008012;28;20042;-70
2024/01/17 10:23:09;;;;;;;1.42;1.42;;;;;;;2.34;100.00;97724.34;5008646;28;20025;-72
2024/01/17 10:25:41;;;;;;;1.40;1.40;;;;;;;2.02;100.00;97652.09;5010359;28;20041;-72
2024/01/17 10:28:08;;;;;;;1.40;1.40;;;;;;;2.38;100.00;97713.69;5007613;28;20022;-72
2024/01/17 10:30:41;;;;;;;1.40;1.40;;;;;;;2.33;100.00;97705.13;5011344;28;20133;-71
2024/01/17 10:33:07;;;;;;;1.20;1.20;;;;;;;2.34;100.00;97677.97;5007855;28;20079;-71
2024/01/17 10:35:34;;;;;;;1.30;1.30;;;;;;;2.38;100.00;97689.19;5007360;28;20079;-71
2024/01/17 10:38:00;;;;;;;1.30;1.30;;;;;;;2.31;100.00;97670.22;5007063;28;20113;-71
2024/01/17 10:40:25;;;;;;;1.40;1.40;;;;;;;2.12;100.00;97631.63;4990869;28;20018;-71
2024/01/17 10:43:10;;;;;;;1.40;1.40;;;;;;;2.37;100.00;97659.47;5008093;28;20033;-72
2024/01/17 10:45:38;;;;;;;1.50;1.50;;;;;;;2.44;100.00;97658.34;4990713;28;20111;-71
2024/01/17 10:48:07;;;;;;;1.30;1.30;;;;;;;2.48;100.00;97657.34;5007174;28;20136;-71
2024/01/17 10:50:33;;;;;;;1.30;1.30;;;;;;;2.48;100.00;97657.34;5008475;28;20026;-70
2024/01/17 10:53:08;;;;;;;1.40;1.40;;;;;;;2.45;100.00;97646.97;4990309;28;20864;-71
2024/01/17 10:55:36;;;;;;;1.30;1.30;;;;;;;2.49;100.00;97659.03;4965240;28;20026;-72
2024/01/17 10:58:10;;;;;;;1.30;1.30;;;;;;;2.43;100.00;97643.53;5000012;28;20076;-70
2024/01/17 11:00:40;;;;;;;1.40;1.40;;;;;;;2.43;100.00;97635.66;5006968;28;20033;-71
2024/01/17 11:03:09;;;;;;;1.33;1.33;;;;;;;2.49;100.00;97630.19;5006819;28;20037;-71
2024/01/17 11:05:44;;;;;;;1.40;1.40;;;;;;;2.24;100.00;97589.22;4988674;28;20050;-70
2024/01/17 11:08:10;;;;;;;1.35;1.35;;;;;;;2.27;100.00;97589.09;4988645;28;20046;-71
2024/01/17 11:10:36;;;;;;;1.30;1.30;;;;;;;2.48;100.00;97615.38;4989750;28;20033;-71
2024/01/17 11:13:03;;;;;;;1.30;1.30;;;;;;;2.47;100.00;97608.38;5007673;28;20108;-71
2024/01/17 11:15:30;;;;;;;1.17;1.17;;;;;;;2.49;100.00;97608.31;4990867;28;20410;-72
2024/01/17 11:17:59;;;;;;;1.30;1.30;;;;;;;2.53;100.00;97612.53;5008557;28;20730;-71
2024/01/17 11:20:25;;;;;;;1.23;1.23;;;;;;;2.24;100.00;97566.47;5008014;28;20076;-71
2024/01/17 11:22:51;;;;;;;1.50;1.50;;;;;;;2.56;100.00;97605.41;5007614;28;20131;-71
2024/01/17 11:25:27;;;;;;;1.23;1.23;;;;;;;2.59;100.00;97601.81;4990747;28;20503;-71
2024/01/17 11:27:59;;;;;;;1.33;1.33;;;;;;;2.34;100.00;97565.19;5006139;28;20041;-70
2024/01/17 11:31:05;;;;;;;1.30;1.30;;;;;;;2.63;100.00;97585.03;5008538;28;20056;-71
2024/01/17 11:33:32;;;;;;;1.40;1.40;;;;;;;2.63;100.00;97571.91;5007418;28;20026;-71